sensor_id;sensor_type;location;lat;lon;timestamp;P1;durP1;ratioP1;P2;durP2;ratioP2
19278;SDS011;9773;47.062;15.446;2023-04-24T00:00:08;4.07;;;3.77;;
19278;SDS011;9773;47.062;15.446;2023-04-24T00:02:35;4.17;;;3.50;;
19278;SDS011;9773;47.062;15.446;2023-04-24T00:05:05;4.23;;;3.93;;
19278;SDS011;9773;47.062;15.446;2023-04-24T00:07:31;4.50;;;4.20;;
19278;SDS011;9773;47.062;15.446;2023-04-24T00:09:57;6.60;;;3.77;;
19278;SDS011;9773;47.062;15.446;2023-04-24T00:12:23;4.63;;;4.33;;
19278;SDS011;9773;47.062;15.446;2023-04-24T00:14:50;3.90;;;3.60;;
19278;SDS011;9773;47.062;15.446;2023-04-24T00:17:15;4.07;;;3.77;;
19278;SDS011;9773;47.062;15.446;2023-04-24T00:19:45;4.27;;;3.87;;
19278;SDS011;9773;47.062;15.446;2023-04-24T00:22:11;4.03;;;3.73;;
19278;SDS011;9773;47.062;15.446;2023-04-24T00:24:38;4.07;;;3.77;;
19278;SDS011;9773;47.062;15.446;2023-04-24T00:27:04;4.03;;;3.73;;
19278;SDS011;9773;47.062;15.446;2023-04-24T00:29:30;4.13;;;3.83;;
19278;SDS011;9773;47.062;15.446;2023-04-24T00:31:56;3.60;;;3.40;;
19278;SDS011;9773;47.062;15.446;2023-04-24T00:34:22;4.27;;;3.87;;
19278;SDS011;9773;47.062;15.446;2023-04-24T00:36:48;3.97;;;3.67;;
19278;SDS011;9773;47.062;15.446;2023-04-24T00:39:20;4.60;;;4.30;;
19278;SDS011;9773;47.062;15.446;2023-04-24T00:41:46;3.97;;;3.77;;
19278;SDS011;9773;47.062;15.446;2023-04-24T00:44:13;3.70;;;3.50;;
19278;SDS011;9773;47.062;15.446;2023-04-24T00:46:39;4.30;;;3.83;;
19278;SDS011;9773;47.062;15.446;2023-04-24T00:49:06;3.80;;;3.50;;
19278;SDS011;9773;47.062;15.446;2023-04-24T00:51:34;3.67;;;3.37;;
19278;SDS011;9773;47.062;15.446;2023-04-24T00:54:01;3.97;;;3.67;;
19278;SDS011;9773;47.062;15.446;2023-04-24T00:56:27;4.40;;;4.10;;
19278;SDS011;9773;47.062;15.446;2023-04-24T00:58:54;4.77;;;4.23;;
19278;SDS011;9773;47.062;15.446;2023-04-24T01:01:21;4.30;;;4.00;;
19278;SDS011;9773;47.062;15.446;2023-04-24T01:03:47;3.83;;;3.63;;
19278;SDS011;9773;47.062;15.446;2023-04-24T01:06:15;3.90;;;3.60;;
19278;SDS011;9773;47.062;15.446;2023-04-24T01:08:43;4.10;;;3.70;;
19278;SDS011;9773;47.062;15.446;2023-04-24T01:11:10;3.20;;;3.00;;
19278;SDS011;9773;47.062;15.446;2023-04-24T01:13:36;4.30;;;3.90;;
19278;SDS011;9773;47.062;15.446;2023-04-24T01:16:01;4.60;;;3.73;;
19278;SDS011;9773;47.062;15.446;2023-04-24T01:18:27;4.23;;;3.93;;
19278;SDS011;9773;47.062;15.446;2023-04-24T01:20:54;4.33;;;4.03;;
19278;SDS011;9773;47.062;15.446;2023-04-24T01:23:28;4.27;;;3.97;;
19278;SDS011;9773;47.062;15.446;2023-04-24T01:25:54;4.40;;;4.10;;
19278;SDS011;9773;47.062;15.446;2023-04-24T01:28:19;4.90;;;4.50;;
19278;SDS011;9773;47.062;15.446;2023-04-24T01:30:46;4.70;;;4.30;;
19278;SDS011;9773;47.062;15.446;2023-04-24T01:33:11;4.80;;;4.40;;
19278;SDS011;9773;47.062;15.446;2023-04-24T01:35:37;4.90;;;4.50;;
19278;SDS011;9773;47.062;15.446;2023-04-24T01:38:03;4.77;;;4.37;;
19278;SDS011;9773;47.062;15.446;2023-04-24T01:40:31;5.07;;;4.63;;
19278;SDS011;9773;47.062;15.446;2023-04-24T01:42:57;4.97;;;4.50;;
19278;SDS011;9773;47.062;15.446;2023-04-24T01:45:25;5.37;;;4.87;;
19278;SDS011;9773;47.062;15.446;2023-04-24T01:47:51;4.77;;;4.27;;
19278;SDS011;9773;47.062;15.446;2023-04-24T01:50:17;5.10;;;4.70;;
19278;SDS011;9773;47.062;15.446;2023-04-24T01:52:43;4.97;;;4.57;;
19278;SDS011;9773;47.062;15.446;2023-04-24T01:55:09;4.70;;;4.40;;
19278;SDS011;9773;47.062;15.446;2023-04-24T01:57:35;4.53;;;4.23;;
19278;SDS011;9773;47.062;15.446;2023-04-24T02:00:02;4.80;;;4.40;;
19278;SDS011;9773;47.062;15.446;2023-04-24T02:02:29;4.90;;;4.50;;
19278;SDS011;9773;47.062;15.446;2023-04-24T02:04:56;4.60;;;4.20;;
19278;SDS011;9773;47.062;15.446;2023-04-24T02:07:22;5.70;;;4.23;;
19278;SDS011;9773;47.062;15.446;2023-04-24T02:09:48;4.10;;;3.90;;
19278;SDS011;9773;47.062;15.446;2023-04-24T02:12:17;4.20;;;3.90;;
19278;SDS011;9773;47.062;15.446;2023-04-24T02:14:43;4.10;;;3.80;;
19278;SDS011;9773;47.062;15.446;2023-04-24T02:17:09;4.70;;;4.00;;
19278;SDS011;9773;47.062;15.446;2023-04-24T02:19:38;3.70;;;3.50;;
19278;SDS011;9773;47.062;15.446;2023-04-24T02:22:04;3.70;;;3.50;;
19278;SDS011;9773;47.062;15.446;2023-04-24T02:24:29;3.50;;;3.30;;
19278;SDS011;9773;47.062;15.446;2023-04-24T02:26:55;4.07;;;3.73;;
19278;SDS011;9773;47.062;15.446;2023-04-24T02:29:21;3.97;;;3.60;;
19278;SDS011;9773;47.062;15.446;2023-04-24T02:31:47;4.20;;;3.90;;
19278;SDS011;9773;47.062;15.446;2023-04-24T02:34:13;4.50;;;4.17;;
19278;SDS011;9773;47.062;15.446;2023-04-24T02:36:39;4.70;;;4.30;;
19278;SDS011;9773;47.062;15.446;2023-04-24T02:39:05;5.50;;;4.77;;
19278;SDS011;9773;47.062;15.446;2023-04-24T02:41:31;4.73;;;4.33;;
19278;SDS011;9773;47.062;15.446;2023-04-24T02:43:58;4.67;;;4.27;;
19278;SDS011;9773;47.062;15.446;2023-04-24T02:46:24;4.83;;;4.43;;
19278;SDS011;9773;47.062;15.446;2023-04-24T02:48:50;5.30;;;4.80;;
19278;SDS011;9773;47.062;15.446;2023-04-24T02:51:16;5.23;;;4.73;;
19278;SDS011;9773;47.062;15.446;2023-04-24T02:53:41;5.57;;;4.90;;
19278;SDS011;9773;47.062;15.446;2023-04-24T02:56:07;5.40;;;4.77;;
19278;SDS011;9773;47.062;15.446;2023-04-24T02:58:33;5.83;;;4.67;;
19278;SDS011;9773;47.062;15.446;2023-04-24T03:01:00;4.70;;;4.33;;
19278;SDS011;9773;47.062;15.446;2023-04-24T03:03:26;5.40;;;4.90;;
19278;SDS011;9773;47.062;15.446;2023-04-24T03:05:51;6.37;;;4.90;;
19278;SDS011;9773;47.062;15.446;2023-04-24T03:08:17;5.90;;;5.30;;
19278;SDS011;9773;47.062;15.446;2023-04-24T03:10:43;5.20;;;4.80;;
19278;SDS011;9773;47.062;15.446;2023-04-24T03:13:09;5.47;;;4.97;;
19278;SDS011;9773;47.062;15.446;2023-04-24T03:15:35;5.23;;;4.83;;
19278;SDS011;9773;47.062;15.446;2023-04-24T03:18:00;6.20;;;5.60;;
19278;SDS011;9773;47.062;15.446;2023-04-24T03:20:27;5.83;;;5.33;;
19278;SDS011;9773;47.062;15.446;2023-04-24T03:22:53;5.60;;;5.10;;
19278;SDS011;9773;47.062;15.446;2023-04-24T03:25:19;5.97;;;5.00;;
19278;SDS011;9773;47.062;15.446;2023-04-24T03:27:45;6.67;;;5.40;;
19278;SDS011;9773;47.062;15.446;2023-04-24T03:30:11;5.40;;;4.90;;
19278;SDS011;9773;47.062;15.446;2023-04-24T03:32:37;6.87;;;5.87;;
19278;SDS011;9773;47.062;15.446;2023-04-24T03:35:04;5.60;;;5.10;;
19278;SDS011;9773;47.062;15.446;2023-04-24T03:37:32;5.03;;;4.57;;
19278;SDS011;9773;47.062;15.446;2023-04-24T03:39:58;4.93;;;4.53;;
19278;SDS011;9773;47.062;15.446;2023-04-24T03:42:24;5.10;;;4.70;;
19278;SDS011;9773;47.062;15.446;2023-04-24T03:44:50;5.13;;;4.63;;
19278;SDS011;9773;47.062;15.446;2023-04-24T03:47:15;4.93;;;4.53;;
19278;SDS011;9773;47.062;15.446;2023-04-24T03:49:41;5.27;;;4.70;;
19278;SDS011;9773;47.062;15.446;2023-04-24T03:52:07;4.93;;;4.43;;
19278;SDS011;9773;47.062;15.446;2023-04-24T03:54:33;4.50;;;4.20;;
19278;SDS011;9773;47.062;15.446;2023-04-24T03:56:59;4.73;;;4.23;;
19278;SDS011;9773;47.062;15.446;2023-04-24T03:59:25;5.20;;;3.73;;
19278;SDS011;9773;47.062;15.446;2023-04-24T04:01:50;3.93;;;3.63;;
19278;SDS011;9773;47.062;15.446;2023-04-24T04:04:16;4.27;;;3.87;;
19278;SDS011;9773;47.062;15.446;2023-04-24T04:06:42;4.20;;;3.90;;
19278;SDS011;9773;47.062;15.446;2023-04-24T04:09:09;4.03;;;3.63;;
19278;SDS011;9773;47.062;15.446;2023-04-24T04:11:35;3.60;;;3.30;;
19278;SDS011;9773;47.062;15.446;2023-04-24T04:14:01;4.37;;;3.70;;
19278;SDS011;9773;47.062;15.446;2023-04-24T04:16:27;4.33;;;4.03;;
19278;SDS011;9773;47.062;15.446;2023-04-24T04:18:53;4.63;;;3.70;;
19278;SDS011;9773;47.062;15.446;2023-04-24T04:21:18;4.47;;;4.07;;
19278;SDS011;9773;47.062;15.446;2023-04-24T04:23:44;4.13;;;3.83;;
19278;SDS011;9773;47.062;15.446;2023-04-24T04:26:11;8.03;;;6.23;;
19278;SDS011;9773;47.062;15.446;2023-04-24T04:28:37;4.13;;;3.83;;
19278;SDS011;9773;47.062;15.446;2023-04-24T04:31:04;4.23;;;3.90;;
19278;SDS011;9773;47.062;15.446;2023-04-24T04:33:32;5.97;;;4.17;;
19278;SDS011;9773;47.062;15.446;2023-04-24T04:35:58;4.93;;;4.47;;
19278;SDS011;9773;47.062;15.446;2023-04-24T04:38:25;4.67;;;4.27;;
19278;SDS011;9773;47.062;15.446;2023-04-24T04:40:55;4.43;;;4.03;;
19278;SDS011;9773;47.062;15.446;2023-04-24T04:43:24;5.30;;;4.30;;
19278;SDS011;9773;47.062;15.446;2023-04-24T04:45:50;4.23;;;3.93;;
19278;SDS011;9773;47.062;15.446;2023-04-24T04:48:17;4.43;;;4.10;;
19278;SDS011;9773;47.062;15.446;2023-04-24T04:50:43;4.63;;;4.23;;
19278;SDS011;9773;47.062;15.446;2023-04-24T04:53:09;5.17;;;4.50;;
19278;SDS011;9773;47.062;15.446;2023-04-24T04:55:35;7.00;;;4.80;;
19278;SDS011;9773;47.062;15.446;2023-04-24T04:58:01;5.37;;;4.87;;
19278;SDS011;9773;47.062;15.446;2023-04-24T05:00:27;4.73;;;4.33;;
19278;SDS011;9773;47.062;15.446;2023-04-24T05:02:58;5.43;;;4.93;;
19278;SDS011;9773;47.062;15.446;2023-04-24T05:05:24;5.07;;;4.60;;
19278;SDS011;9773;47.062;15.446;2023-04-24T05:07:50;5.77;;;4.20;;
19278;SDS011;9773;47.062;15.446;2023-04-24T05:10:15;5.03;;;4.63;;
19278;SDS011;9773;47.062;15.446;2023-04-24T05:12:41;5.20;;;4.70;;
19278;SDS011;9773;47.062;15.446;2023-04-24T05:15:07;6.20;;;4.80;;
19278;SDS011;9773;47.062;15.446;2023-04-24T05:17:33;7.20;;;4.80;;
19278;SDS011;9773;47.062;15.446;2023-04-24T05:19:59;4.43;;;4.13;;
19278;SDS011;9773;47.062;15.446;2023-04-24T05:22:25;5.40;;;4.37;;
19278;SDS011;9773;47.062;15.446;2023-04-24T05:24:51;5.03;;;4.53;;
19278;SDS011;9773;47.062;15.446;2023-04-24T05:27:17;5.03;;;4.63;;
19278;SDS011;9773;47.062;15.446;2023-04-24T05:29:42;4.90;;;4.40;;
19278;SDS011;9773;47.062;15.446;2023-04-24T05:32:08;5.23;;;4.47;;
19278;SDS011;9773;47.062;15.446;2023-04-24T05:34:34;6.27;;;5.67;;
19278;SDS011;9773;47.062;15.446;2023-04-24T05:37:00;6.07;;;5.30;;
19278;SDS011;9773;47.062;15.446;2023-04-24T05:39:26;7.33;;;5.83;;
19278;SDS011;9773;47.062;15.446;2023-04-24T05:41:52;6.53;;;5.83;;
19278;SDS011;9773;47.062;15.446;2023-04-24T05:44:17;6.77;;;5.50;;
19278;SDS011;9773;47.062;15.446;2023-04-24T05:46:43;7.20;;;5.80;;
19278;SDS011;9773;47.062;15.446;2023-04-24T05:49:09;6.73;;;6.00;;
19278;SDS011;9773;47.062;15.446;2023-04-24T05:51:35;6.70;;;5.97;;
19278;SDS011;9773;47.062;15.446;2023-04-24T05:54:01;7.80;;;5.97;;
19278;SDS011;9773;47.062;15.446;2023-04-24T05:56:28;6.70;;;6.07;;
19278;SDS011;9773;47.062;15.446;2023-04-24T05:58:54;6.47;;;5.80;;
19278;SDS011;9773;47.062;15.446;2023-04-24T06:01:20;8.63;;;6.23;;
19278;SDS011;9773;47.062;15.446;2023-04-24T06:03:46;8.50;;;6.30;;
19278;SDS011;9773;47.062;15.446;2023-04-24T06:06:12;8.63;;;5.87;;
19278;SDS011;9773;47.062;15.446;2023-04-24T06:08:38;6.33;;;5.73;;
19278;SDS011;9773;47.062;15.446;2023-04-24T06:11:04;6.50;;;5.90;;
19278;SDS011;9773;47.062;15.446;2023-04-24T06:13:29;6.47;;;5.87;;
19278;SDS011;9773;47.062;15.446;2023-04-24T06:15:55;7.57;;;6.00;;
19278;SDS011;9773;47.062;15.446;2023-04-24T06:18:21;9.27;;;5.60;;
19278;SDS011;9773;47.062;15.446;2023-04-24T06:20:47;6.10;;;5.50;;
19278;SDS011;9773;47.062;15.446;2023-04-24T06:23:13;7.80;;;6.37;;
19278;SDS011;9773;47.062;15.446;2023-04-24T06:25:38;8.87;;;5.27;;
19278;SDS011;9773;47.062;15.446;2023-04-24T06:28:06;6.83;;;5.47;;
19278;SDS011;9773;47.062;15.446;2023-04-24T06:30:31;7.30;;;5.27;;
19278;SDS011;9773;47.062;15.446;2023-04-24T06:32:57;5.87;;;5.37;;
19278;SDS011;9773;47.062;15.446;2023-04-24T06:35:23;5.53;;;5.03;;
19278;SDS011;9773;47.062;15.446;2023-04-24T06:37:49;6.73;;;5.27;;
19278;SDS011;9773;47.062;15.446;2023-04-24T06:40:15;6.70;;;6.10;;
19278;SDS011;9773;47.062;15.446;2023-04-24T06:42:43;6.20;;;4.80;;
19278;SDS011;9773;47.062;15.446;2023-04-24T06:45:09;5.23;;;4.83;;
19278;SDS011;9773;47.062;15.446;2023-04-24T06:47:36;5.73;;;5.30;;
19278;SDS011;9773;47.062;15.446;2023-04-24T06:50:03;5.70;;;5.17;;
19278;SDS011;9773;47.062;15.446;2023-04-24T06:52:29;5.70;;;5.20;;
19278;SDS011;9773;47.062;15.446;2023-04-24T06:55:01;7.30;;;5.53;;
19278;SDS011;9773;47.062;15.446;2023-04-24T06:57:28;5.87;;;5.37;;
19278;SDS011;9773;47.062;15.446;2023-04-24T06:59:54;5.53;;;5.03;;
19278;SDS011;9773;47.062;15.446;2023-04-24T07:02:20;7.67;;;5.57;;
19278;SDS011;9773;47.062;15.446;2023-04-24T07:04:46;5.53;;;5.07;;
19278;SDS011;9773;47.062;15.446;2023-04-24T07:07:12;5.90;;;5.30;;
19278;SDS011;9773;47.062;15.446;2023-04-24T07:09:39;5.70;;;5.10;;
19278;SDS011;9773;47.062;15.446;2023-04-24T07:12:09;8.00;;;5.40;;
19278;SDS011;9773;47.062;15.446;2023-04-24T07:14:36;7.03;;;4.87;;
19278;SDS011;9773;47.062;15.446;2023-04-24T07:17:03;7.17;;;5.60;;
19278;SDS011;9773;47.062;15.446;2023-04-24T07:19:29;7.70;;;5.80;;
19278;SDS011;9773;47.062;15.446;2023-04-24T07:21:55;7.87;;;6.27;;
19278;SDS011;9773;47.062;15.446;2023-04-24T07:24:23;6.43;;;5.83;;
19278;SDS011;9773;47.062;15.446;2023-04-24T07:26:50;9.63;;;6.40;;
19278;SDS011;9773;47.062;15.446;2023-04-24T07:29:17;6.77;;;6.00;;
19278;SDS011;9773;47.062;15.446;2023-04-24T07:31:43;11.23;;;6.30;;
19278;SDS011;9773;47.062;15.446;2023-04-24T07:34:08;7.40;;;6.20;;
19278;SDS011;9773;47.062;15.446;2023-04-24T07:36:34;7.03;;;6.33;;
19278;SDS011;9773;47.062;15.446;2023-04-24T07:39:00;7.27;;;6.47;;
19278;SDS011;9773;47.062;15.446;2023-04-24T07:41:26;10.30;;;6.33;;
19278;SDS011;9773;47.062;15.446;2023-04-24T07:43:53;7.13;;;6.43;;
19278;SDS011;9773;47.062;15.446;2023-04-24T07:46:19;8.17;;;6.30;;
19278;SDS011;9773;47.062;15.446;2023-04-24T07:48:45;6.97;;;6.37;;
19278;SDS011;9773;47.062;15.446;2023-04-24T07:51:13;6.93;;;6.20;;
19278;SDS011;9773;47.062;15.446;2023-04-24T07:53:39;7.57;;;6.87;;
19278;SDS011;9773;47.062;15.446;2023-04-24T07:56:05;7.93;;;7.00;;
19278;SDS011;9773;47.062;15.446;2023-04-24T07:58:31;9.87;;;6.83;;
19278;SDS011;9773;47.062;15.446;2023-04-24T08:00:57;11.17;;;6.80;;
19278;SDS011;9773;47.062;15.446;2023-04-24T08:03:22;8.70;;;6.80;;
19278;SDS011;9773;47.062;15.446;2023-04-24T08:05:49;7.73;;;6.93;;
19278;SDS011;9773;47.062;15.446;2023-04-24T08:08:16;7.13;;;6.20;;
19278;SDS011;9773;47.062;15.446;2023-04-24T08:10:42;9.43;;;7.30;;
19278;SDS011;9773;47.062;15.446;2023-04-24T08:13:07;7.23;;;6.53;;
19278;SDS011;9773;47.062;15.446;2023-04-24T08:15:33;8.03;;;6.93;;
19278;SDS011;9773;47.062;15.446;2023-04-24T08:17:59;8.43;;;6.73;;
19278;SDS011;9773;47.062;15.446;2023-04-24T08:20:25;10.90;;;6.87;;
19278;SDS011;9773;47.062;15.446;2023-04-24T08:22:51;7.20;;;6.50;;
19278;SDS011;9773;47.062;15.446;2023-04-24T08:25:17;9.13;;;7.27;;
19278;SDS011;9773;47.062;15.446;2023-04-24T08:27:44;7.37;;;6.60;;
19278;SDS011;9773;47.062;15.446;2023-04-24T08:30:10;8.30;;;6.33;;
19278;SDS011;9773;47.062;15.446;2023-04-24T08:32:36;8.20;;;6.67;;
19278;SDS011;9773;47.062;15.446;2023-04-24T08:35:02;6.33;;;5.73;;
19278;SDS011;9773;47.062;15.446;2023-04-24T08:37:28;7.33;;;6.57;;
19278;SDS011;9773;47.062;15.446;2023-04-24T08:39:54;10.73;;;7.07;;
19278;SDS011;9773;47.062;15.446;2023-04-24T08:42:20;8.70;;;6.93;;
19278;SDS011;9773;47.062;15.446;2023-04-24T08:44:47;10.20;;;7.10;;
19278;SDS011;9773;47.062;15.446;2023-04-24T08:47:14;8.10;;;7.13;;
19278;SDS011;9773;47.062;15.446;2023-04-24T08:49:41;8.67;;;7.37;;
19278;SDS011;9773;47.062;15.446;2023-04-24T08:52:08;8.93;;;8.03;;
19278;SDS011;9773;47.062;15.446;2023-04-24T08:54:34;9.67;;;7.30;;
19278;SDS011;9773;47.062;15.446;2023-04-24T08:57:01;9.70;;;7.33;;
19278;SDS011;9773;47.062;15.446;2023-04-24T08:59:29;11.97;;;8.73;;
19278;SDS011;9773;47.062;15.446;2023-04-24T09:01:56;12.30;;;8.33;;
19278;SDS011;9773;47.062;15.446;2023-04-24T09:04:22;8.27;;;7.43;;
19278;SDS011;9773;47.062;15.446;2023-04-24T09:06:50;10.40;;;7.40;;
19278;SDS011;9773;47.062;15.446;2023-04-24T09:09:20;6.37;;;5.70;;
19278;SDS011;9773;47.062;15.446;2023-04-24T09:11:46;5.43;;;4.93;;
19278;SDS011;9773;47.062;15.446;2023-04-24T09:14:13;6.87;;;4.80;;
19278;SDS011;9773;47.062;15.446;2023-04-24T09:16:40;4.53;;;4.23;;
19278;SDS011;9773;47.062;15.446;2023-04-24T09:19:06;4.13;;;3.83;;
19278;SDS011;9773;47.062;15.446;2023-04-24T09:21:32;6.20;;;4.33;;
19278;SDS011;9773;47.062;15.446;2023-04-24T09:24:04;3.87;;;3.20;;
19278;SDS011;9773;47.062;15.446;2023-04-24T09:26:34;3.63;;;3.30;;
19278;SDS011;9773;47.062;15.446;2023-04-24T09:29:01;3.63;;;3.43;;
19278;SDS011;9773;47.062;15.446;2023-04-24T09:31:27;4.17;;;3.43;;
19278;SDS011;9773;47.062;15.446;2023-04-24T09:33:55;4.00;;;3.07;;
19278;SDS011;9773;47.062;15.446;2023-04-24T09:36:35;3.13;;;2.93;;
19278;SDS011;9773;47.062;15.446;2023-04-24T09:39:08;3.27;;;2.83;;
19278;SDS011;9773;47.062;15.446;2023-04-24T09:44:17;2.80;;;2.57;;
19278;SDS011;9773;47.062;15.446;2023-04-24T09:46:49;2.70;;;2.50;;
19278;SDS011;9773;47.062;15.446;2023-04-24T09:51:51;2.10;;;2.00;;
19278;SDS011;9773;47.062;15.446;2023-04-24T09:54:27;1.80;;;1.70;;
19278;SDS011;9773;47.062;15.446;2023-04-24T09:56:52;2.53;;;2.33;;
19278;SDS011;9773;47.062;15.446;2023-04-24T09:59:19;1.73;;;1.63;;
19278;SDS011;9773;47.062;15.446;2023-04-24T10:01:46;2.13;;;2.00;;
19278;SDS011;9773;47.062;15.446;2023-04-24T10:06:45;1.63;;;1.53;;
19278;SDS011;9773;47.062;15.446;2023-04-24T10:09:13;1.90;;;1.80;;
19278;SDS011;9773;47.062;15.446;2023-04-24T10:11:41;2.20;;;2.00;;
19278;SDS011;9773;47.062;15.446;2023-04-24T10:14:12;2.20;;;2.10;;
19278;SDS011;9773;47.062;15.446;2023-04-24T10:16:48;2.07;;;1.97;;
19278;SDS011;9773;47.062;15.446;2023-04-24T10:19:15;2.00;;;1.90;;
19278;SDS011;9773;47.062;15.446;2023-04-24T10:21:43;1.90;;;1.80;;
19278;SDS011;9773;47.062;15.446;2023-04-24T10:24:15;1.80;;;1.70;;
19278;SDS011;9773;47.062;15.446;2023-04-24T10:26:43;1.73;;;1.63;;
19278;SDS011;9773;47.062;15.446;2023-04-24T10:29:11;1.90;;;1.80;;
19278;SDS011;9773;47.062;15.446;2023-04-24T10:31:38;1.77;;;1.67;;
19278;SDS011;9773;47.062;15.446;2023-04-24T10:34:05;2.10;;;2.00;;
19278;SDS011;9773;47.062;15.446;2023-04-24T10:36:32;1.70;;;1.70;;
19278;SDS011;9773;47.062;15.446;2023-04-24T10:39:00;2.23;;;1.80;;
19278;SDS011;9773;47.062;15.446;2023-04-24T10:41:30;2.30;;;2.20;;
19278;SDS011;9773;47.062;15.446;2023-04-24T10:46:32;3.20;;;1.80;;
19278;SDS011;9773;47.062;15.446;2023-04-24T10:48:57;1.83;;;1.70;;
19278;SDS011;9773;47.062;15.446;2023-04-24T10:51:24;1.60;;;1.50;;
19278;SDS011;9773;47.062;15.446;2023-04-24T10:54:23;1.67;;;1.57;;
19278;SDS011;9773;47.062;15.446;2023-04-24T10:56:50;1.87;;;1.77;;
19278;SDS011;9773;47.062;15.446;2023-04-24T10:59:26;1.70;;;1.70;;
19278;SDS011;9773;47.062;15.446;2023-04-24T11:01:53;1.67;;;1.67;;
19278;SDS011;9773;47.062;15.446;2023-04-24T11:04:28;1.37;;;1.37;;
19278;SDS011;9773;47.062;15.446;2023-04-24T11:06:56;1.40;;;1.40;;
19278;SDS011;9773;47.062;15.446;2023-04-24T11:09:22;1.30;;;1.20;;
19278;SDS011;9773;47.062;15.446;2023-04-24T11:12:02;1.30;;;1.30;;
19278;SDS011;9773;47.062;15.446;2023-04-24T11:17:29;1.60;;;1.50;;
19278;SDS011;9773;47.062;15.446;2023-04-24T11:22:38;1.47;;;1.43;;
19278;SDS011;9773;47.062;15.446;2023-04-24T11:25:08;2.00;;;1.80;;
19278;SDS011;9773;47.062;15.446;2023-04-24T11:27:43;1.40;;;1.30;;
19278;SDS011;9773;47.062;15.446;2023-04-24T11:30:11;1.27;;;1.27;;
19278;SDS011;9773;47.062;15.446;2023-04-24T11:32:38;0.93;;;0.93;;
19278;SDS011;9773;47.062;15.446;2023-04-24T11:37:42;2.00;;;1.90;;
19278;SDS011;9773;47.062;15.446;2023-04-24T11:40:10;1.63;;;1.53;;
19278;SDS011;9773;47.062;15.446;2023-04-24T11:42:38;1.03;;;0.90;;
19278;SDS011;9773;47.062;15.446;2023-04-24T11:45:15;0.60;;;0.60;;
19278;SDS011;9773;47.062;15.446;2023-04-24T11:47:54;0.80;;;0.80;;
19278;SDS011;9773;47.062;15.446;2023-04-24T11:50:24;0.77;;;0.77;;
19278;SDS011;9773;47.062;15.446;2023-04-24T11:52:52;0.70;;;0.70;;
19278;SDS011;9773;47.062;15.446;2023-04-24T11:57:44;2.87;;;0.80;;
19278;SDS011;9773;47.062;15.446;2023-04-24T12:00:27;0.83;;;0.83;;
19278;SDS011;9773;47.062;15.446;2023-04-24T12:03:07;1.53;;;1.00;;
19278;SDS011;9773;47.062;15.446;2023-04-24T12:05:35;0.83;;;0.83;;
19278;SDS011;9773;47.062;15.446;2023-04-24T12:08:01;0.90;;;0.90;;
19278;SDS011;9773;47.062;15.446;2023-04-24T12:10:28;2.57;;;1.00;;
19278;SDS011;9773;47.062;15.446;2023-04-24T12:12:56;0.70;;;0.70;;
19278;SDS011;9773;47.062;15.446;2023-04-24T12:15:23;0.90;;;0.90;;
19278;SDS011;9773;47.062;15.446;2023-04-24T12:17:53;1.13;;;1.03;;
19278;SDS011;9773;47.062;15.446;2023-04-24T12:22:55;1.17;;;1.10;;
19278;SDS011;9773;47.062;15.446;2023-04-24T12:25:23;1.00;;;1.00;;
19278;SDS011;9773;47.062;15.446;2023-04-24T12:28:09;1.00;;;1.00;;
19278;SDS011;9773;47.062;15.446;2023-04-24T12:30:41;0.87;;;0.87;;
19278;SDS011;9773;47.062;15.446;2023-04-24T12:33:15;0.80;;;0.80;;
19278;SDS011;9773;47.062;15.446;2023-04-24T12:35:47;1.07;;;0.80;;
19278;SDS011;9773;47.062;15.446;2023-04-24T12:38:13;1.17;;;1.00;;
19278;SDS011;9773;47.062;15.446;2023-04-24T12:40:41;1.00;;;0.80;;
19278;SDS011;9773;47.062;15.446;2023-04-24T12:43:14;0.90;;;0.87;;
19278;SDS011;9773;47.062;15.446;2023-04-24T12:45:44;0.70;;;0.70;;
19278;SDS011;9773;47.062;15.446;2023-04-24T12:48:10;0.60;;;0.60;;
19278;SDS011;9773;47.062;15.446;2023-04-24T12:50:36;0.80;;;0.80;;
19278;SDS011;9773;47.062;15.446;2023-04-24T12:53:03;1.23;;;0.83;;
19278;SDS011;9773;47.062;15.446;2023-04-24T12:55:28;2.73;;;2.53;;
19278;SDS011;9773;47.062;15.446;2023-04-24T12:57:54;2.80;;;2.60;;
19278;SDS011;9773;47.062;15.446;2023-04-24T13:00:21;1.00;;;1.00;;
19278;SDS011;9773;47.062;15.446;2023-04-24T13:02:47;0.57;;;0.57;;
19278;SDS011;9773;47.062;15.446;2023-04-24T13:05:12;0.60;;;0.60;;
19278;SDS011;9773;47.062;15.446;2023-04-24T13:07:39;0.70;;;0.70;;
19278;SDS011;9773;47.062;15.446;2023-04-24T13:10:05;0.67;;;0.67;;
19278;SDS011;9773;47.062;15.446;2023-04-24T13:12:32;0.80;;;0.80;;
19278;SDS011;9773;47.062;15.446;2023-04-24T13:14:57;0.60;;;0.60;;
19278;SDS011;9773;47.062;15.446;2023-04-24T13:17:23;0.60;;;0.60;;
19278;SDS011;9773;47.062;15.446;2023-04-24T13:19:50;0.50;;;0.50;;
19278;SDS011;9773;47.062;15.446;2023-04-24T13:22:16;0.60;;;0.60;;
19278;SDS011;9773;47.062;15.446;2023-04-24T13:24:46;0.60;;;0.60;;
19278;SDS011;9773;47.062;15.446;2023-04-24T13:27:13;0.53;;;0.53;;
19278;SDS011;9773;47.062;15.446;2023-04-24T13:29:40;0.60;;;0.60;;
19278;SDS011;9773;47.062;15.446;2023-04-24T13:32:06;0.70;;;0.70;;
19278;SDS011;9773;47.062;15.446;2023-04-24T13:34:32;0.50;;;0.50;;
19278;SDS011;9773;47.062;15.446;2023-04-24T13:36:59;0.67;;;0.50;;
19278;SDS011;9773;47.062;15.446;2023-04-24T13:39:25;0.50;;;0.50;;
19278;SDS011;9773;47.062;15.446;2023-04-24T13:41:52;0.60;;;0.60;;
19278;SDS011;9773;47.062;15.446;2023-04-24T13:44:18;0.47;;;0.47;;
19278;SDS011;9773;47.062;15.446;2023-04-24T13:46:46;0.60;;;0.60;;
19278;SDS011;9773;47.062;15.446;2023-04-24T13:49:13;1.53;;;0.63;;
19278;SDS011;9773;47.062;15.446;2023-04-24T13:51:39;0.70;;;0.70;;
19278;SDS011;9773;47.062;15.446;2023-04-24T13:54:05;0.77;;;0.77;;
19278;SDS011;9773;47.062;15.446;2023-04-24T13:56:32;0.60;;;0.60;;
19278;SDS011;9773;47.062;15.446;2023-04-24T13:58:58;0.60;;;0.60;;
19278;SDS011;9773;47.062;15.446;2023-04-24T14:01:23;1.30;;;1.30;;
19278;SDS011;9773;47.062;15.446;2023-04-24T14:03:50;0.60;;;0.60;;
19278;SDS011;9773;47.062;15.446;2023-04-24T14:06:17;0.60;;;0.60;;
19278;SDS011;9773;47.062;15.446;2023-04-24T14:08:43;0.87;;;0.87;;
19278;SDS011;9773;47.062;15.446;2023-04-24T14:11:09;0.70;;;0.70;;
19278;SDS011;9773;47.062;15.446;2023-04-24T14:13:35;1.43;;;0.70;;
19278;SDS011;9773;47.062;15.446;2023-04-24T14:16:02;0.67;;;0.67;;
19278;SDS011;9773;47.062;15.446;2023-04-24T14:18:29;1.40;;;1.20;;
19278;SDS011;9773;47.062;15.446;2023-04-24T14:20:55;0.90;;;0.90;;
19278;SDS011;9773;47.062;15.446;2023-04-24T14:23:20;0.80;;;0.80;;
19278;SDS011;9773;47.062;15.446;2023-04-24T14:25:46;2.43;;;0.77;;
19278;SDS011;9773;47.062;15.446;2023-04-24T14:28:17;0.60;;;0.60;;
19278;SDS011;9773;47.062;15.446;2023-04-24T14:30:45;0.70;;;0.70;;
19278;SDS011;9773;47.062;15.446;2023-04-24T14:33:11;0.67;;;0.67;;
19278;SDS011;9773;47.062;15.446;2023-04-24T14:35:38;0.80;;;0.80;;
19278;SDS011;9773;47.062;15.446;2023-04-24T14:38:05;0.80;;;0.80;;
19278;SDS011;9773;47.062;15.446;2023-04-24T14:40:31;0.83;;;0.83;;
19278;SDS011;9773;47.062;15.446;2023-04-24T14:42:57;0.60;;;0.60;;
19278;SDS011;9773;47.062;15.446;2023-04-24T14:45:26;0.90;;;0.90;;
19278;SDS011;9773;47.062;15.446;2023-04-24T14:47:52;0.90;;;0.90;;
19278;SDS011;9773;47.062;15.446;2023-04-24T14:50:18;0.77;;;0.77;;
19278;SDS011;9773;47.062;15.446;2023-04-24T14:52:45;0.80;;;0.80;;
19278;SDS011;9773;47.062;15.446;2023-04-24T14:55:11;0.90;;;0.90;;
19278;SDS011;9773;47.062;15.446;2023-04-24T14:57:37;1.20;;;1.17;;
19278;SDS011;9773;47.062;15.446;2023-04-24T15:00:03;0.97;;;0.83;;
19278;SDS011;9773;47.062;15.446;2023-04-24T15:02:34;1.60;;;1.07;;
19278;SDS011;9773;47.062;15.446;2023-04-24T15:05:02;1.00;;;1.00;;
19278;SDS011;9773;47.062;15.446;2023-04-24T15:07:29;1.17;;;1.10;;
19278;SDS011;9773;47.062;15.446;2023-04-24T15:09:54;1.00;;;1.00;;